createdAt,value
2018-05-19T00:01:34.458Z,9.60
2018-05-19T00:04:03.367Z,9.60
2018-05-19T00:06:31.498Z,9.60
2018-05-19T00:08:59.637Z,9.60
2018-05-19T00:11:27.765Z,9.70
2018-05-19T00:13:55.905Z,9.30
2018-05-19T00:16:24.036Z,9.30
2018-05-19T00:18:52.177Z,9.00
2018-05-19T00:21:21.143Z,8.90
2018-05-19T00:23:49.288Z,8.80
2018-05-19T00:26:17.424Z,9.10
2018-05-19T00:28:45.569Z,9.30
2018-05-19T00:31:14.464Z,9.40
2018-05-19T00:33:43.380Z,9.50
2018-05-19T00:36:11.512Z,9.50
2018-05-19T00:38:39.660Z,9.30
2018-05-19T00:41:07.821Z,9.00
2018-05-19T00:43:35.964Z,8.90
2018-05-19T00:46:04.121Z,9.00
2018-05-19T00:48:32.262Z,9.10
2018-05-19T00:51:00.423Z,9.30
2018-05-19T00:53:28.591Z,9.30
2018-05-19T00:55:56.729Z,9.30
2018-05-19T00:58:24.860Z,9.30
2018-05-19T01:00:53.010Z,9.20
2018-05-19T01:03:21.155Z,9.10
2018-05-19T01:05:49.307Z,9.20
2018-05-19T01:08:17.477Z,9.30
2018-05-19T01:10:46.468Z,9.00
2018-05-19T01:13:14.600Z,9.00
2018-05-19T01:15:42.760Z,9.00
2018-05-19T01:18:10.900Z,9.00
2018-05-19T01:20:39.030Z,8.90
2018-05-19T01:23:07.935Z,8.80
2018-05-19T01:25:36.070Z,8.80
2018-05-19T01:28:04.286Z,9.00
2018-05-19T01:30:32.348Z,9.10
2018-05-19T01:33:00.497Z,9.10
2018-05-19T01:35:28.641Z,9.10
2018-05-19T01:37:56.784Z,9.10
2018-05-19T01:40:24.923Z,9.20
2018-05-19T01:42:53.841Z,9.20
2018-05-19T01:45:21.970Z,9.20
2018-05-19T01:47:50.125Z,9.30
2018-05-19T01:50:19.041Z,9.20
2018-05-19T01:52:47.948Z,9.20
2018-05-19T01:55:16.843Z,9.20
2018-05-19T01:57:44.988Z,9.20
2018-05-19T02:00:13.140Z,9.10
2018-05-19T02:02:41.304Z,8.90
2018-05-19T02:05:09.452Z,8.90
2018-05-19T02:07:37.581Z,9.00
2018-05-19T02:10:05.726Z,9.10
2018-05-19T02:12:33.867Z,8.90
2018-05-19T02:15:02.025Z,8.60
2018-05-19T02:17:30.152Z,8.70
2018-05-19T02:19:58.322Z,8.90
2018-05-19T02:22:26.461Z,9.00
2018-05-19T02:24:54.609Z,9.00
2018-05-19T02:27:22.745Z,9.10
2018-05-19T02:29:50.896Z,9.00
2018-05-19T02:32:19.039Z,8.90
2018-05-19T02:34:47.196Z,8.80
2018-05-19T02:37:15.329Z,8.80
2018-05-19T02:39:43.491Z,8.70
2018-05-19T02:42:12.700Z,8.60
2018-05-19T02:44:40.852Z,8.40
2018-05-19T02:47:08.985Z,8.50
2018-05-19T02:49:37.132Z,8.40
2018-05-19T02:52:05.262Z,8.10
2018-05-19T02:54:34.030Z,8.10
2018-05-19T02:57:02.153Z,8.30
2018-05-19T02:59:30.284Z,8.40
2018-05-19T03:01:59.541Z,8.60
2018-05-19T03:04:27.672Z,8.60
2018-05-19T03:06:55.824Z,8.70
2018-05-19T03:09:23.960Z,8.60
2018-05-19T03:11:52.105Z,8.60
2018-05-19T03:14:21.000Z,8.40
2018-05-19T03:16:49.165Z,8.40
2018-05-19T03:19:17.306Z,8.10
2018-05-19T03:21:45.453Z,8.10
2018-05-19T03:24:13.595Z,8.30
2018-05-19T03:26:42.512Z,8.30
2018-05-19T03:29:10.638Z,8.30
2018-05-19T03:31:38.820Z,8.30
2018-05-19T03:34:07.709Z,8.20
2018-05-19T03:36:36.620Z,8.20
2018-05-19T03:39:06.288Z,8.10
2018-05-19T03:41:34.510Z,8.30
2018-05-19T03:44:02.664Z,8.30
2018-05-19T03:46:31.576Z,8.40
2018-05-19T03:48:59.712Z,8.40
2018-05-19T03:51:27.860Z,8.20
2018-05-19T03:53:56.095Z,8.00
2018-05-19T03:56:24.234Z,8.10
2018-05-19T03:59:04.164Z,8.30
2018-05-19T04:01:44.020Z,8.40
2018-05-19T04:04:12.916Z,8.50
2018-05-19T04:06:41.824Z,8.40
2018-05-19T04:09:09.961Z,8.40
2018-05-19T04:11:38.109Z,8.50
2018-05-19T04:14:06.270Z,8.70
2018-05-19T04:16:34.367Z,8.80
2018-05-19T04:19:03.368Z,8.50
2018-05-19T04:21:31.504Z,8.60
2018-05-19T04:23:59.649Z,8.50
2018-05-19T04:26:27.781Z,8.40
2018-05-19T04:28:55.930Z,8.70
2018-05-19T04:31:24.061Z,8.70
2018-05-19T04:33:52.206Z,8.60
2018-05-19T04:36:21.101Z,8.40
2018-05-19T04:38:50.024Z,8.30
2018-05-19T04:41:18.148Z,8.30
2018-05-19T04:43:46.297Z,8.40
2018-05-19T04:46:14.420Z,8.40
2018-05-19T04:48:42.565Z,8.50
2018-05-19T04:51:11.476Z,8.60
2018-05-19T04:53:39.633Z,8.50
2018-05-19T04:56:08.545Z,8.30
2018-05-19T04:58:36.726Z,8.30
2018-05-19T05:01:04.872Z,8.40
2018-05-19T05:03:33.764Z,8.50
2018-05-19T05:06:01.914Z,8.40
2018-05-19T05:08:30.044Z,8.60
2018-05-19T05:10:58.199Z,8.90
2018-05-19T05:13:26.334Z,9.20
2018-05-19T05:15:54.476Z,9.50
2018-05-19T05:18:22.600Z,9.80
2018-05-19T05:20:50.751Z,9.90
2018-05-19T05:23:18.889Z,10.00
2018-05-19T05:25:47.822Z,10.30
2018-05-19T05:28:16.756Z,10.30
2018-05-19T05:30:44.909Z,10.40
2018-05-19T05:33:13.156Z,10.50
2018-05-19T05:35:41.321Z,10.60
2018-05-19T05:38:09.465Z,10.60
2018-05-19T05:40:37.619Z,10.70
2018-05-19T05:43:05.777Z,10.90
2018-05-19T05:45:33.924Z,10.90
2018-05-19T05:48:02.826Z,10.70
2018-05-19T05:50:30.986Z,10.70
2018-05-19T05:52:59.877Z,10.80
2018-05-19T05:55:28.054Z,10.70
2018-05-19T05:57:56.193Z,10.90
2018-05-19T06:00:24.329Z,10.90
2018-05-19T06:02:52.490Z,10.90
2018-05-19T06:05:20.632Z,11.00
2018-05-19T06:07:49.558Z,11.20
2018-05-19T06:10:17.701Z,11.10
2018-05-19T06:12:45.872Z,11.30
2018-05-19T06:15:14.760Z,11.40
2018-05-19T06:17:43.788Z,11.60
2018-05-19T06:20:11.905Z,11.60
2018-05-19T06:22:40.056Z,11.70
2018-05-19T06:25:08.952Z,12.00
2018-05-19T06:27:37.101Z,12.00
2018-05-19T06:30:05.228Z,12.30
2018-05-19T06:32:34.146Z,12.40
2018-05-19T06:35:02.285Z,12.40
2018-05-19T06:37:31.193Z,12.50
2018-05-19T06:39:59.329Z,12.50
2018-05-19T06:42:27.480Z,12.90
2018-05-19T06:44:55.680Z,13.10
2018-05-19T06:47:24.594Z,13.50
2018-05-19T06:49:52.732Z,13.50
2018-05-19T06:52:20.876Z,13.70
2018-05-19T06:54:49.009Z,14.00
2018-05-19T06:57:17.172Z,14.20
2018-05-19T06:59:46.068Z,14.30
2018-05-19T07:02:14.208Z,14.30
2018-05-19T07:04:42.362Z,14.40
2018-05-19T07:07:10.488Z,14.80
2018-05-19T07:09:38.642Z,15.20
2018-05-19T07:12:06.766Z,15.00
2018-05-19T07:14:34.907Z,15.10
2018-05-19T07:17:03.040Z,15.00
2018-05-19T07:19:31.185Z,15.00
2018-05-19T07:21:59.321Z,14.90
2018-05-19T07:24:27.492Z,14.60
2018-05-19T07:26:56.408Z,14.90
2018-05-19T07:29:24.543Z,14.90
2018-05-19T07:31:52.704Z,15.20
2018-05-19T07:34:21.624Z,15.50
2018-05-19T07:36:49.756Z,15.50
2018-05-19T07:39:18.697Z,15.70
2018-05-19T07:41:46.854Z,15.70
2018-05-19T07:44:15.004Z,15.80
2018-05-19T07:46:43.233Z,15.70
2018-05-19T07:49:11.388Z,15.80
2018-05-19T07:51:39.525Z,15.80
2018-05-19T07:54:07.660Z,15.80
2018-05-19T07:56:35.919Z,15.80
2018-05-19T07:59:04.128Z,15.90
2018-05-19T08:01:33.132Z,17.20
2018-05-19T08:04:02.034Z,17.60
2018-05-19T08:06:30.242Z,17.60
2018-05-19T08:08:58.327Z,17.60
2018-05-19T08:11:26.483Z,17.40
2018-05-19T08:13:54.609Z,17.70
2018-05-19T08:16:22.763Z,18.10
2018-05-19T08:18:50.900Z,18.20
2018-05-19T08:21:19.061Z,18.30
2018-05-19T08:23:47.197Z,18.70
2018-05-19T08:26:16.107Z,19.10
2018-05-19T08:28:44.232Z,19.10
2018-05-19T08:31:12.381Z,19.70
2018-05-19T08:33:40.512Z,19.80
2018-05-19T08:36:08.664Z,20.00
2018-05-19T08:38:37.556Z,20.10
2018-05-19T08:41:06.477Z,20.20
2018-05-19T08:43:34.602Z,20.30
2018-05-19T08:46:02.755Z,20.50
2018-05-19T08:48:30.936Z,20.40
2018-05-19T08:50:59.076Z,20.30
2018-05-19T08:53:27.246Z,20.60
2018-05-19T08:55:55.377Z,20.10
2018-05-19T08:58:24.284Z,20.00
2018-05-19T09:00:52.549Z,20.00
2018-05-19T09:03:20.708Z,20.80
2018-05-19T09:05:49.625Z,22.20
2018-05-19T09:08:17.821Z,22.20
2018-05-19T09:10:45.945Z,22.40
2018-05-19T09:13:14.861Z,22.80
2018-05-19T09:15:43.017Z,22.80
2018-05-19T09:18:11.179Z,21.80
2018-05-19T09:20:40.088Z,21.70
2018-05-19T09:23:09.021Z,21.40
2018-05-19T09:25:37.148Z,21.40
2018-05-19T09:28:05.326Z,21.50
2018-05-19T09:30:34.276Z,20.40
2018-05-19T09:33:02.420Z,20.40
2018-05-19T09:35:31.341Z,20.30
2018-05-19T09:37:59.483Z,20.30
2018-05-19T09:40:27.636Z,20.60
2018-05-19T09:42:55.779Z,21.10
2018-05-19T09:45:23.920Z,21.50
2018-05-19T09:47:52.064Z,21.60
2018-05-19T09:50:20.214Z,22.30
2018-05-19T09:52:48.409Z,22.50
2018-05-19T09:55:16.552Z,22.70
2018-05-19T09:57:44.686Z,22.60
2018-05-19T10:00:16.084Z,23.30
2018-05-19T10:02:44.191Z,24.00
2018-05-19T10:05:12.435Z,24.00
2018-05-19T10:07:40.487Z,23.70
2018-05-19T10:10:08.652Z,23.70
2018-05-19T10:12:36.810Z,23.70
2018-05-19T10:15:04.961Z,23.30
2018-05-19T10:17:33.094Z,23.60
2018-05-19T10:20:01.239Z,23.70
2018-05-19T10:22:29.730Z,24.20
2018-05-19T10:24:57.873Z,23.70
2018-05-19T10:27:26.766Z,23.80
2018-05-19T10:29:55.701Z,23.70
2018-05-19T10:32:23.832Z,23.70
2018-05-19T10:34:51.985Z,23.80
2018-05-19T10:37:20.119Z,23.90
2018-05-19T10:39:48.264Z,23.60
2018-05-19T10:42:16.416Z,23.60
2018-05-19T10:44:44.550Z,23.60
2018-05-19T10:47:12.705Z,23.90
2018-05-19T10:49:40.844Z,23.90
2018-05-19T10:52:08.993Z,23.60
2018-05-19T10:54:37.902Z,23.30
2018-05-19T10:57:06.064Z,23.30
2018-05-19T10:59:35.358Z,23.60
2018-05-19T11:02:04.000Z,23.60
2018-05-19T11:04:32.141Z,23.60
2018-05-19T11:07:00.286Z,23.70
2018-05-19T11:09:29.176Z,23.90
2018-05-19T11:11:58.088Z,24.10
2018-05-19T11:14:26.221Z,24.10
2018-05-19T11:16:55.133Z,23.90
2018-05-19T11:19:23.280Z,23.90
2018-05-19T11:21:51.431Z,23.80
2018-05-19T11:24:19.560Z,24.20
2018-05-19T11:26:47.729Z,24.60
2018-05-19T11:29:15.874Z,24.70
2018-05-19T11:31:44.777Z,24.70
2018-05-19T11:34:12.928Z,24.60
2018-05-19T11:36:41.057Z,24.80
2018-05-19T11:39:09.202Z,24.70
2018-05-19T11:41:37.422Z,24.90
2018-05-19T11:44:05.484Z,24.70
2018-05-19T11:46:33.613Z,24.80
2018-05-19T11:49:01.764Z,25.00
2018-05-19T11:51:29.894Z,25.20
2018-05-19T11:53:58.044Z,24.50
2018-05-19T11:56:26.172Z,24.80
2018-05-19T11:58:54.316Z,24.50
2018-05-19T12:01:22.466Z,24.60
2018-05-19T12:03:50.612Z,24.80
2018-05-19T12:06:18.747Z,24.80
2018-05-19T12:08:46.906Z,24.70
2018-05-19T12:11:15.039Z,24.80
2018-05-19T12:13:43.196Z,24.50
2018-05-19T12:16:12.086Z,24.70
2018-05-19T12:18:40.240Z,24.70
2018-05-19T12:21:08.368Z,24.40
2018-05-19T12:23:36.512Z,24.50
2018-05-19T12:26:04.657Z,24.50
2018-05-19T12:28:32.805Z,24.00
2018-05-19T12:31:00.955Z,23.70
2018-05-19T12:33:29.088Z,23.70
2018-05-19T12:35:57.236Z,24.00
2018-05-19T12:38:25.390Z,24.50
2018-05-19T12:40:53.547Z,24.90
2018-05-19T12:43:21.692Z,25.40
2018-05-19T12:45:49.848Z,25.40
2018-05-19T12:48:18.096Z,25.70
2018-05-19T12:50:46.244Z,25.70
2018-05-19T12:53:15.204Z,25.80
2018-05-19T12:55:43.350Z,25.80
2018-05-19T12:58:12.249Z,25.00
2018-05-19T13:00:40.413Z,25.00
2018-05-19T13:03:08.553Z,24.90
2018-05-19T13:05:36.706Z,24.80
2018-05-19T13:08:04.841Z,24.80
2018-05-19T13:10:33.009Z,25.20
2018-05-19T13:13:01.149Z,25.30
2018-05-19T13:15:29.286Z,24.60
2018-05-19T13:17:58.201Z,24.50
2018-05-19T13:20:26.349Z,24.50
2018-05-19T13:22:55.277Z,24.80
2018-05-19T13:25:23.408Z,24.80
2018-05-19T13:27:51.680Z,25.20
2018-05-19T13:30:20.441Z,24.60
2018-05-19T13:32:48.592Z,24.40
2018-05-19T13:35:17.491Z,24.30
2018-05-19T13:37:46.429Z,24.40
2018-05-19T13:40:14.555Z,24.40
2018-05-19T13:42:42.708Z,24.10
2018-05-19T13:45:10.860Z,23.90
2018-05-19T13:47:39.050Z,23.70
2018-05-19T13:50:07.967Z,23.30
2018-05-19T13:52:36.148Z,23.30
2018-05-19T13:55:04.292Z,23.40
2018-05-19T13:57:33.213Z,23.40
2018-05-19T14:00:01.354Z,23.30
2018-05-19T14:02:30.268Z,23.00
2018-05-19T14:04:58.406Z,22.90
2018-05-19T14:07:27.329Z,22.90
2018-05-19T14:09:55.479Z,22.90
2018-05-19T14:12:24.391Z,22.60
2018-05-19T14:14:52.521Z,22.60
2018-05-19T14:17:20.670Z,22.70
2018-05-19T14:19:48.802Z,22.90
2018-05-19T14:22:16.937Z,22.70
2018-05-19T14:24:45.099Z,22.60
2018-05-19T14:27:13.233Z,22.50
2018-05-19T14:29:41.382Z,22.50
2018-05-19T14:32:09.515Z,22.30
2018-05-19T14:34:37.664Z,22.40
2018-05-19T14:37:05.796Z,22.40
2018-05-19T14:39:33.951Z,22.40
2018-05-19T14:42:02.848Z,22.30
2018-05-19T14:44:31.822Z,22.30
2018-05-19T14:46:59.946Z,22.30
2018-05-19T14:49:28.109Z,22.30
2018-05-19T14:51:56.246Z,22.30
2018-05-19T14:54:24.405Z,22.40
2018-05-19T14:56:52.536Z,22.40
2018-05-19T14:59:20.688Z,22.40
2018-05-19T15:01:48.827Z,22.40
2018-05-19T15:04:16.970Z,22.50
2018-05-19T15:06:45.105Z,22.60
2018-05-19T15:09:13.261Z,22.70
2018-05-19T15:11:42.434Z,22.90
2018-05-19T15:14:10.595Z,22.90
2018-05-19T15:16:38.731Z,22.70
2018-05-19T15:19:06.871Z,22.30
2018-05-19T15:21:35.017Z,21.90
2018-05-19T15:24:03.132Z,20.60
2018-05-19T15:26:31.265Z,19.50
2018-05-19T15:28:59.404Z,19.40
2018-05-19T15:31:27.549Z,19.50
2018-05-19T15:33:55.676Z,19.20
2018-05-19T15:36:23.817Z,18.80
2018-05-19T15:38:51.947Z,18.80
2018-05-19T15:41:20.328Z,18.80
2018-05-19T15:43:48.482Z,19.00
2018-05-19T15:46:17.384Z,18.90
2018-05-19T15:48:45.517Z,18.80
2018-05-19T15:51:13.649Z,18.80
2018-05-19T15:53:41.776Z,19.00
2018-05-19T15:56:10.015Z,19.20
2018-05-19T15:58:38.072Z,19.10
2018-05-19T16:01:06.226Z,19.30
2018-05-19T16:03:34.367Z,19.50
2018-05-19T16:06:03.291Z,19.40
2018-05-19T16:08:31.407Z,19.40
2018-05-19T16:10:59.553Z,19.50
2018-05-19T16:13:27.677Z,19.50
2018-05-19T16:15:56.560Z,19.80
2018-05-19T16:18:25.550Z,19.90
2018-05-19T16:20:53.600Z,19.80
2018-05-19T16:23:21.745Z,20.00
2018-05-19T16:25:49.869Z,19.90
2018-05-19T16:28:18.767Z,20.00
2018-05-19T16:30:47.659Z,20.20
2018-05-19T16:33:16.560Z,20.40
2018-05-19T16:35:44.680Z,20.30
2018-05-19T16:38:12.839Z,20.40
2018-05-19T16:40:40.960Z,20.50
2018-05-19T16:43:09.109Z,20.50
2018-05-19T16:45:37.232Z,20.50
2018-05-19T16:48:05.368Z,20.40
2018-05-19T16:50:34.262Z,20.30
2018-05-19T16:53:02.408Z,20.30
2018-05-19T16:55:30.533Z,20.10
2018-05-19T16:57:58.689Z,20.10
2018-05-19T17:00:26.809Z,19.90
2018-05-19T17:02:55.716Z,19.70
2018-05-19T17:05:23.845Z,19.70
2018-05-19T17:07:51.987Z,19.70
2018-05-19T17:10:20.117Z,19.60
2018-05-19T17:12:48.246Z,19.60
2018-05-19T17:15:16.390Z,19.50
2018-05-19T17:17:45.288Z,19.40
2018-05-19T17:20:13.549Z,19.40
2018-05-19T17:22:42.449Z,19.20
2018-05-19T17:25:11.356Z,19.20
2018-05-19T17:27:39.485Z,19.10
2018-05-19T17:30:07.626Z,19.20
2018-05-19T17:32:35.748Z,19.20
2018-05-19T17:35:04.652Z,19.10
2018-05-19T17:37:32.790Z,19.10
2018-05-19T17:40:00.944Z,19.00
2018-05-19T17:42:29.415Z,18.90
2018-05-19T17:44:57.568Z,18.70
2018-05-19T17:47:25.714Z,18.40
2018-05-19T17:49:53.856Z,18.30
2018-05-19T17:52:21.982Z,18.20
2018-05-19T17:54:50.136Z,18.10
2018-05-19T17:57:18.269Z,18.10
2018-05-19T17:59:46.404Z,17.90
2018-05-19T18:02:14.620Z,17.90
2018-05-19T18:04:42.742Z,17.80
2018-05-19T18:07:10.894Z,17.80
2018-05-19T18:09:39.029Z,17.80
2018-05-19T18:12:07.177Z,17.70
2018-05-19T18:14:35.293Z,17.70
2018-05-19T18:17:03.445Z,17.60
2018-05-19T18:19:31.572Z,17.50
2018-05-19T18:21:59.704Z,17.40
2018-05-19T18:24:28.645Z,17.40
2018-05-19T18:26:56.785Z,17.40
2018-05-19T18:29:24.966Z,17.50
2018-05-19T18:31:54.036Z,17.50
2018-05-19T18:34:22.925Z,17.50
2018-05-19T18:36:51.082Z,17.50
2018-05-19T18:39:19.200Z,17.40
2018-05-19T18:41:47.340Z,17.30
2018-05-19T18:44:16.281Z,17.20
2018-05-19T18:46:44.469Z,17.20
2018-05-19T18:49:12.590Z,17.20
2018-05-19T18:51:45.744Z,17.20
2018-05-19T18:54:13.832Z,17.10
2018-05-19T18:56:42.020Z,17.10
2018-05-19T18:59:10.172Z,17.10
2018-05-19T19:01:38.301Z,17.10
2018-05-19T19:04:06.444Z,17.00
2018-05-19T19:06:34.613Z,16.90
2018-05-19T19:09:02.756Z,16.90
2018-05-19T19:11:31.651Z,16.90
2018-05-19T19:14:00.548Z,16.80
2018-05-19T19:16:29.470Z,16.90
2018-05-19T19:18:57.608Z,16.80
2018-05-19T19:21:26.623Z,16.80
2018-05-19T19:23:54.784Z,16.80
2018-05-19T19:26:22.918Z,16.80
2018-05-19T19:28:51.054Z,16.80
2018-05-19T19:31:19.180Z,16.70
2018-05-19T19:33:47.316Z,16.70
2018-05-19T19:36:15.501Z,16.70
2018-05-19T19:38:43.673Z,16.70
2018-05-19T19:41:12.767Z,16.70
2018-05-19T19:43:40.897Z,16.70
2018-05-19T19:46:09.068Z,16.70
2018-05-19T19:48:37.215Z,16.70
2018-05-19T19:51:06.116Z,16.70
2018-05-19T19:53:34.360Z,16.70
2018-05-19T19:56:03.264Z,16.60
2018-05-19T19:58:32.230Z,16.50
2018-05-19T20:01:00.359Z,16.50
2018-05-19T20:03:28.491Z,16.50
2018-05-19T20:05:57.402Z,16.40
2018-05-19T20:08:25.593Z,16.40
2018-05-19T20:10:53.772Z,16.40
2018-05-19T20:13:21.976Z,16.40
2018-05-19T20:15:50.100Z,16.40
2018-05-19T20:18:18.243Z,16.40
2018-05-19T20:20:46.393Z,16.30
2018-05-19T20:23:14.513Z,16.30
2018-05-19T20:25:42.668Z,16.30
2018-05-19T20:28:10.809Z,16.30
2018-05-19T20:30:38.938Z,16.30
2018-05-19T20:33:07.076Z,16.30
2018-05-19T20:35:35.965Z,16.20
2018-05-19T20:38:04.121Z,16.20
2018-05-19T20:40:33.017Z,16.10
2018-05-19T20:43:01.917Z,16.10
2018-05-19T20:45:30.882Z,16.00
2018-05-19T20:47:59.021Z,16.00
2018-05-19T20:50:27.148Z,15.90
2018-05-19T20:52:56.049Z,15.90
2018-05-19T20:55:24.198Z,15.80
2018-05-19T20:57:52.341Z,15.90
2018-05-19T21:00:21.550Z,15.90
2018-05-19T21:02:49.708Z,15.90
2018-05-19T21:05:18.207Z,15.80
2018-05-19T21:07:46.472Z,15.90
2018-05-19T21:10:14.599Z,15.90
2018-05-19T21:12:42.737Z,15.90
2018-05-19T21:15:11.624Z,15.80
2018-05-19T21:17:40.529Z,15.80
2018-05-19T21:20:08.654Z,15.80
2018-05-19T21:22:36.805Z,15.80
2018-05-19T21:25:04.938Z,15.80
2018-05-19T21:27:33.071Z,15.80
2018-05-19T21:30:01.208Z,15.70
2018-05-19T21:32:29.329Z,15.70
2018-05-19T21:34:57.468Z,15.70
2018-05-19T21:37:25.609Z,15.70
2018-05-19T21:39:53.756Z,15.60
2018-05-19T21:42:21.873Z,15.50
2018-05-19T21:44:50.020Z,15.50
2018-05-19T21:47:18.906Z,15.50
2018-05-19T21:49:47.839Z,15.50
2018-05-19T21:52:15.952Z,15.50
2018-05-19T21:54:44.867Z,15.50
2018-05-19T21:57:13.004Z,15.50
2018-05-19T21:59:41.141Z,15.50
2018-05-19T22:02:10.077Z,15.40
2018-05-19T22:04:38.980Z,15.40
2018-05-19T22:07:07.121Z,15.40
2018-05-19T22:09:35.266Z,15.40
2018-05-19T22:12:03.406Z,15.40
2018-05-19T22:14:31.608Z,15.40
2018-05-19T22:16:59.712Z,15.40
2018-05-19T22:19:27.883Z,15.40
2018-05-19T22:21:56.003Z,15.30
2018-05-19T22:24:24.136Z,15.30
2018-05-19T22:26:53.040Z,15.20
2018-05-19T22:29:21.936Z,15.30
2018-05-19T22:31:50.393Z,15.30
2018-05-19T22:34:18.884Z,15.30
2018-05-19T22:36:47.006Z,15.30
2018-05-19T22:39:15.129Z,15.30
2018-05-19T22:41:43.276Z,15.20
2018-05-19T22:44:11.396Z,15.30
2018-05-19T22:46:39.550Z,15.20
2018-05-19T22:49:07.672Z,15.20
2018-05-19T22:51:35.868Z,15.10
2018-05-19T22:54:04.006Z,15.00
2018-05-19T22:56:32.157Z,15.00
2018-05-19T22:59:00.300Z,15.00
2018-05-19T23:01:29.207Z,15.00
2018-05-19T23:03:57.348Z,15.00
2018-05-19T23:06:25.501Z,15.00
2018-05-19T23:08:53.644Z,15.00
2018-05-19T23:11:21.780Z,15.00
2018-05-19T23:13:50.701Z,14.90
2018-05-19T23:16:18.841Z,14.80
2018-05-19T23:18:47.737Z,14.90
2018-05-19T23:21:16.637Z,14.80
2018-05-19T23:23:44.765Z,14.80
2018-05-19T23:26:12.917Z,14.80
2018-05-19T23:28:41.036Z,14.80
2018-05-19T23:31:09.920Z,14.70
2018-05-19T23:33:38.832Z,14.70
2018-05-19T23:36:06.957Z,14.70
2018-05-19T23:38:35.096Z,14.70
2018-05-19T23:41:03.302Z,14.70
2018-05-19T23:43:31.452Z,14.70
2018-05-19T23:45:59.580Z,14.70
2018-05-19T23:48:27.716Z,14.60
2018-05-19T23:50:55.841Z,14.50
2018-05-19T23:53:23.975Z,14.60
2018-05-19T23:55:52.101Z,14.60
2018-05-19T23:58:20.244Z,14.60
